Wan Hai 273 — 9V7586 — position and weather

sailwx.info

Track history (hours):
 
Tides and Currents Weather Stations Pressure Air Temp Water Temp Dewpoint Dewpoint Depression Visibility Wind Speed Wind Dir Waves Ship Positions

Wan Hai 273

Last reported at 2014-Jul-21 18:30 UTC. Time now 2014-Jul-22 23:37 UTC.
Position N 34°03' E 130°22'.

Length 172 m; draft 7.6 m.

Type: Cargo ship. MMSI: 566406000.

Date/timePositionNaut miles runAvg speedWind from/ knotsBaromVisibWave heightAir tempDewpointWater temp
2014-Jul-21 18:30N 34°03' E 130°22'1716.8
2014-Jul-21 17:31N 34°03' E 130°42'21011.7
2014-Jul-20 23:31N 34°06' E 134°56'1616.7
2014-Jul-20 22:34N 34°22' E 134°59'1818.3
2014-Jul-20 21:33N 34°35' E 135°15'6 5.7
2014-Jul-20 20:32N 34°41' E 135°15'0 0.0
2014-Jul-20 19:33N 34°41' E 135°15'0 0.0
2014-Jul-20 18:32N 34°41' E 135°15'0 0.0
2014-Jul-20 17:32N 34°41' E 135°15'0 0.0
2014-Jul-20 16:32N 34°41' E 135°15'0 0.0
2014-Jul-20 15:33N 34°41' E 135°15'0 0.0
2014-Jul-20 14:32N 34°41' E 135°15'0 0.0
2014-Jul-20 13:33N 34°41' E 135°15'0 0.0
2014-Jul-20 12:32N 34°41' E 135°15'0 0.0
2014-Jul-20 11:27N 34°41' E 135°15'0 0.1
2014-Jul-20 10:33N 34°41' E 135°15'9 8.6
2014-Jul-20 09:33N 34°39' E 135°25'0 0.4
2014-Jul-20 08:28N 34°39' E 135°26'0 0.0
2014-Jul-20 07:28N 34°39' E 135°26'0 0.0
2014-Jul-20 06:28N 34°39' E 135°26'0 0.0
2014-Jul-20 05:22N 34°39' E 135°26'0 0.0
2014-Jul-20 04:22N 34°39' E 135°26'0 0.0
2014-Jul-20 03:28N 34°39' E 135°26'0 0.0
2014-Jul-20 02:16N 34°39' E 135°26'0 0.0
2014-Jul-20 01:22N 34°39' E 135°26'0 0.0
2014-Jul-20 00:22N 34°39' E 135°26'0 0.0
2014-Jul-19 23:22N 34°39' E 135°26'0 0.1
2014-Jul-19 22:29N 34°39' E 135°26'8 9.2
2014-Jul-19 21:33N 34°34' E 135°17'1717.3
2014-Jul-19 20:33N 34°21' E 135°03'1414.1
2014-Jul-19 19:34N 34°07' E 134°60'10 9.7
2014-Jul-19 18:33N 33°58' E 134°59'  
2014-Jul-17 06:13N 24°30' E 119°25'1217.3
2014-Jul-17 05:32N 24°22' E 119°16'5418.2
2014-Jul-17 02:33N 23°46' E 118°30'7616.9
2014-Jul-16 22:03N 23°04' E 117°22'1016.5
2014-Jul-16 21:28N 22°58' E 117°13'1617.1
2014-Jul-16 20:33N 22°51' E 116°58'1717.3
2014-Jul-16 19:33N 22°43' E 116°41'1817.9
2014-Jul-16 18:33N 22°35' E 116°24'1918.3
2014-Jul-16 17:32N 22°26' E 116°06'11216.0
2014-Jul-16 10:33N 22°18' E 114°06'2 0.7
2014-Jul-16 07:17N 22°19' E 114°07'0 0.0
2014-Jul-16 03:11N 22°19' E 114°07'0 0.0
2014-Jul-16 02:29N 22°19' E 114°07'0 0.0
2014-Jul-16 01:05N 22°19' E 114°07'0 0.0
2014-Jul-15 23:29N 22°19' E 114°07'0 0.0
2014-Jul-15 22:29N 22°19' E 114°07'0 0.0
2014-Jul-15 21:23N 22°19' E 114°07'1 1.7
2014-Jul-15 20:31N 22°19' E 114°06'3 0.3
2014-Jul-15 09:29N 22°16' E 114°06'0 0.1
2014-Jul-15 08:23N 22°16' E 114°06'0 0.0
2014-Jul-15 07:23N 22°16' E 114°06'0 0.1
2014-Jul-15 06:29N 22°16' E 114°06'0 0.1
2014-Jul-15 05:29N 22°16' E 114°06'0 0.0
2014-Jul-15 04:29N 22°16' E 114°06'2 1.0
2014-Jul-15 02:31N 22°18' E 114°05'1010.6
2014-Jul-15 01:33N 22°22' E 113°55'6 5.4
2014-Jul-15 00:30N 22°27' E 113°53'0 0.0
2014-Jul-14 23:33N 22°27' E 113°53'0 0.0
2014-Jul-14 22:33N 22°27' E 113°53'0 0.0
2014-Jul-14 21:33N 22°27' E 113°53'0 0.0
2014-Jul-14 20:33N 22°27' E 113°53'0 0.0
2014-Jul-14 19:33N 22°27' E 113°53'0 0.0
2014-Jul-14 18:33N 22°27' E 113°53'0 0.0
2014-Jul-14 17:33N 22°27' E 113°53'0 0.0
2014-Jul-14 16:33N 22°27' E 113°53'0 0.0
2014-Jul-14 15:33N 22°27' E 113°53'0 0.0
2014-Jul-14 14:30N 22°27' E 113°53'0 0.0
2014-Jul-14 13:27N 22°27' E 113°53'0 0.0
2014-Jul-14 12:33N 22°27' E 113°53'1 1.1
2014-Jul-14 11:33N 22°26' E 113°53'13 8.8
2014-Jul-14 10:07N 22°20' E 114°05'813.4
2014-Jul-14 09:32N 22°13' E 114°09'25 3.6
2014-Jul-14 02:32N 21°53' E 113°55'  
Track history (hours):
 
Tides and Currents Weather Stations Pressure Air Temp Water Temp Dewpoint Dewpoint Depression Visibility Wind Speed Wind Dir Waves Ship Positions

Wan Hai 273

Last reported at 2014-Jul-21 18:30 UTC. Time now 2014-Jul-22 23:37 UTC.
Position N 34°03' E 130°22'.

Length 172 m; draft 7.6 m.

Type: Cargo ship. MMSI: 566406000.

Date/timePositionNaut miles runAvg speedWind from/ knotsBaromVisibWave heightAir tempDewpointWater temp
2014-Jul-21 18:30N 34°03' E 130°22'1716.8
2014-Jul-21 17:31N 34°03' E 130°42'21011.7
2014-Jul-20 23:31N 34°06' E 134°56'1616.7
2014-Jul-20 22:34N 34°22' E 134°59'1818.3
2014-Jul-20 21:33N 34°35' E 135°15'6 5.7
2014-Jul-20 20:32N 34°41' E 135°15'0 0.0
2014-Jul-20 19:33N 34°41' E 135°15'0 0.0
2014-Jul-20 18:32N 34°41' E 135°15'0 0.0
2014-Jul-20 17:32N 34°41' E 135°15'0 0.0
2014-Jul-20 16:32N 34°41' E 135°15'0 0.0
2014-Jul-20 15:33N 34°41' E 135°15'0 0.0
2014-Jul-20 14:32N 34°41' E 135°15'0 0.0
2014-Jul-20 13:33N 34°41' E 135°15'0 0.0
2014-Jul-20 12:32N 34°41' E 135°15'0 0.0
2014-Jul-20 11:27N 34°41' E 135°15'0 0.1
2014-Jul-20 10:33N 34°41' E 135°15'9 8.6
2014-Jul-20 09:33N 34°39' E 135°25'0 0.4
2014-Jul-20 08:28N 34°39' E 135°26'0 0.0
2014-Jul-20 07:28N 34°39' E 135°26'0 0.0
2014-Jul-20 06:28N 34°39' E 135°26'0 0.0
2014-Jul-20 05:22N 34°39' E 135°26'0 0.0
2014-Jul-20 04:22N 34°39' E 135°26'0 0.0
2014-Jul-20 03:28N 34°39' E 135°26'0 0.0
2014-Jul-20 02:16N 34°39' E 135°26'0 0.0
2014-Jul-20 01:22N 34°39' E 135°26'0 0.0
2014-Jul-20 00:22N 34°39' E 135°26'0 0.0
2014-Jul-19 23:22N 34°39' E 135°26'0 0.1
2014-Jul-19 22:29N 34°39' E 135°26'8 9.2
2014-Jul-19 21:33N 34°34' E 135°17'1717.3
2014-Jul-19 20:33N 34°21' E 135°03'1414.1
2014-Jul-19 19:34N 34°07' E 134°60'10 9.7
2014-Jul-19 18:33N 33°58' E 134°59'  
2014-Jul-17 06:13N 24°30' E 119°25'1217.3
2014-Jul-17 05:32N 24°22' E 119°16'5418.2
2014-Jul-17 02:33N 23°46' E 118°30'7616.9
2014-Jul-16 22:03N 23°04' E 117°22'1016.5
2014-Jul-16 21:28N 22°58' E 117°13'1617.1
2014-Jul-16 20:33N 22°51' E 116°58'1717.3
2014-Jul-16 19:33N 22°43' E 116°41'1817.9
2014-Jul-16 18:33N 22°35' E 116°24'1918.3
2014-Jul-16 17:32N 22°26' E 116°06'11216.0
2014-Jul-16 10:33N 22°18' E 114°06'2 0.7
2014-Jul-16 07:17N 22°19' E 114°07'0 0.0
2014-Jul-16 03:11N 22°19' E 114°07'0 0.0
2014-Jul-16 02:29N 22°19' E 114°07'0 0.0
2014-Jul-16 01:05N 22°19' E 114°07'0 0.0
2014-Jul-15 23:29N 22°19' E 114°07'0 0.0
2014-Jul-15 22:29N 22°19' E 114°07'0 0.0
2014-Jul-15 21:23N 22°19' E 114°07'1 1.7
2014-Jul-15 20:31N 22°19' E 114°06'3 0.3
2014-Jul-15 09:29N 22°16' E 114°06'0 0.1
2014-Jul-15 08:23N 22°16' E 114°06'0 0.0
2014-Jul-15 07:23N 22°16' E 114°06'0 0.1
2014-Jul-15 06:29N 22°16' E 114°06'0 0.1
2014-Jul-15 05:29N 22°16' E 114°06'0 0.0
2014-Jul-15 04:29N 22°16' E 114°06'2 1.0
2014-Jul-15 02:31N 22°18' E 114°05'1010.6
2014-Jul-15 01:33N 22°22' E 113°55'6 5.4
2014-Jul-15 00:30N 22°27' E 113°53'0 0.0
2014-Jul-14 23:33N 22°27' E 113°53'0 0.0
2014-Jul-14 22:33N 22°27' E 113°53'0 0.0
2014-Jul-14 21:33N 22°27' E 113°53'0 0.0
2014-Jul-14 20:33N 22°27' E 113°53'0 0.0
2014-Jul-14 19:33N 22°27' E 113°53'0 0.0
2014-Jul-14 18:33N 22°27' E 113°53'0 0.0
2014-Jul-14 17:33N 22°27' E 113°53'0 0.0
2014-Jul-14 16:33N 22°27' E 113°53'0 0.0
2014-Jul-14 15:33N 22°27' E 113°53'0 0.0
2014-Jul-14 14:30N 22°27' E 113°53'0 0.0
2014-Jul-14 13:27N 22°27' E 113°53'0 0.0
2014-Jul-14 12:33N 22°27' E 113°53'1 1.1
2014-Jul-14 11:33N 22°26' E 113°53'13 8.8
2014-Jul-14 10:07N 22°20' E 114°05'813.4
2014-Jul-14 09:32N 22°13' E 114°09'25 3.6
2014-Jul-14 02:32N 21°53' E 113°55'  

Dump ship's entire track history